createdAt,value
2018-12-19T00:00:18.133Z,6.86
2018-12-19T00:02:20.079Z,6.91
2018-12-19T00:02:59.034Z,6.93
2018-12-19T00:03:39.428Z,6.97
2018-12-19T00:05:59.055Z,6.96
2018-12-19T00:06:51.943Z,6.9
2018-12-19T00:07:46.319Z,6.89
2018-12-19T00:08:40.748Z,6.91
2018-12-19T00:15:47.050Z,6.94
2018-12-19T00:16:43.369Z,7.01
2018-12-19T00:19:14.940Z,7.01
2018-12-19T00:20:08.141Z,7.04
2018-12-19T00:37:54.990Z,7.23
2018-12-19T00:38:55.078Z,7.26
2018-12-19T00:39:56.373Z,7.29
2018-12-19T00:41:53.840Z,7.3
2018-12-19T00:42:36.267Z,7.3
2018-12-19T00:43:17.675Z,7.3
2018-12-19T00:43:58.081Z,7.36
2018-12-19T00:44:38.642Z,7.32
2018-12-19T00:45:19.009Z,7.33
2018-12-19T00:45:59.514Z,7.32
2018-12-19T00:46:39.913Z,7.37
2018-12-19T00:47:20.372Z,7.48
2018-12-19T00:48:00.789Z,7.51
2018-12-19T00:48:42.078Z,7.48
2018-12-19T00:49:22.441Z,7.45
2018-12-19T00:50:02.850Z,7.48
2018-12-19T00:50:43.415Z,7.48
2018-12-19T00:51:24.046Z,7.44
2018-12-19T00:52:04.775Z,7.48
2018-12-19T00:52:45.426Z,7.48
2018-12-19T00:53:25.819Z,7.45
2018-12-19T00:54:06.463Z,7.51
2018-12-19T00:54:47.007Z,7.47
2018-12-19T00:55:28.399Z,7.57
2018-12-19T00:56:08.948Z,7.57
2018-12-19T00:56:49.246Z,7.58
2018-12-19T00:57:29.612Z,7.54
2018-12-19T00:58:10.019Z,7.57
2018-12-19T00:58:50.406Z,7.51
2018-12-19T00:59:30.778Z,7.54
2018-12-19T01:00:11.198Z,7.5
2018-12-19T01:00:51.931Z,7.51
2018-12-19T01:01:32.216Z,7.55
2018-12-19T01:03:09.792Z,7.55
2018-12-19T01:03:52.128Z,7.51
2018-12-19T01:04:34.507Z,7.47
2018-12-19T01:05:16.174Z,7.51
2018-12-19T01:05:56.224Z,7.55
2018-12-19T01:06:36.642Z,7.44
2018-12-19T01:07:16.979Z,7.47
2018-12-19T01:07:57.429Z,7.47
2018-12-19T01:08:39.429Z,7.57
2018-12-19T01:09:21.371Z,7.57
2018-12-19T01:10:01.754Z,7.57
2018-12-19T01:10:43.100Z,7.5
2018-12-19T01:11:23.564Z,7.6
2018-12-19T01:15:02.432Z,7.55
2018-12-19T01:15:46.186Z,7.58
2018-12-19T01:16:26.346Z,7.7
2018-12-19T01:17:06.705Z,7.69
2018-12-19T01:17:48.737Z,7.57
2018-12-19T01:18:29.115Z,7.57
2018-12-19T01:19:09.493Z,7.67
2018-12-19T01:19:50.065Z,7.58
2018-12-19T01:20:32.361Z,7.67
2018-12-19T01:21:12.789Z,7.54
2018-12-19T01:21:53.217Z,7.52
2018-12-19T01:22:35.430Z,7.58
2018-12-19T01:23:15.954Z,7.6
2018-12-19T01:23:56.204Z,7.57
2018-12-19T01:24:36.668Z,7.45
2018-12-19T01:25:17.018Z,7.62
2018-12-19T01:25:57.373Z,7.55
2018-12-19T01:26:37.800Z,7.6
2018-12-19T01:27:18.214Z,7.62
2018-12-19T01:31:40.494Z,7.58
2018-12-19T01:32:18.046Z,7.62
2018-12-19T01:32:59.436Z,7.58
2018-12-19T01:33:39.807Z,7.6
2018-12-19T01:34:20.221Z,7.58
2018-12-19T01:35:00.526Z,7.6
2018-12-19T01:35:42.690Z,7.55
2018-12-19T01:36:23.146Z,7.62
2018-12-19T01:37:05.121Z,7.66
2018-12-19T01:37:45.554Z,7.54
2018-12-19T01:38:26.655Z,7.57
2018-12-19T01:39:08.191Z,7.67
2018-12-19T01:39:48.751Z,7.67
2018-12-19T01:40:30.413Z,7.55
2018-12-19T01:41:11.770Z,7.57
2018-12-19T01:41:52.174Z,7.6
2018-12-19T01:42:32.585Z,7.63
2018-12-19T01:43:13.054Z,7.58
2018-12-19T01:43:53.381Z,7.6
2018-12-19T01:44:33.801Z,7.7
2018-12-19T01:45:16.135Z,7.71
2018-12-19T01:45:57.222Z,7.63
2018-12-19T01:46:37.298Z,7.66
2018-12-19T01:47:17.651Z,7.67
2018-12-19T01:47:58.136Z,7.66
2018-12-19T01:48:38.544Z,7.63
2018-12-19T01:49:18.971Z,7.6
2018-12-19T01:49:59.744Z,7.66
2018-12-19T01:50:40.017Z,7.66
2018-12-19T01:51:20.395Z,7.6
2018-12-19T01:52:01.110Z,7.63
2018-12-19T01:52:41.354Z,7.57
2018-12-19T01:53:23.257Z,7.58
2018-12-19T01:54:03.706Z,7.57
2018-12-19T01:54:44.080Z,7.66
2018-12-19T01:55:25.186Z,7.63
2018-12-19T01:56:05.559Z,7.55
2018-12-19T01:56:46.057Z,7.63
2018-12-19T01:57:27.306Z,7.57
2018-12-19T01:58:07.940Z,7.63
2018-12-19T01:58:49.113Z,7.69
2018-12-19T01:59:29.508Z,7.63
2018-12-19T02:00:09.914Z,7.66
2018-12-19T02:00:50.277Z,7.69
2018-12-19T02:01:30.711Z,7.69
2018-12-19T02:02:11.111Z,7.7
2018-12-19T02:02:51.495Z,7.79
2018-12-19T02:03:31.875Z,7.67
2018-12-19T02:04:12.274Z,7.71
2018-12-19T02:04:52.642Z,7.66
2018-12-19T02:05:33.054Z,7.71
2018-12-19T02:06:13.431Z,7.71
2018-12-19T02:06:53.831Z,7.73
2018-12-19T02:07:34.264Z,7.77
2018-12-19T02:08:14.621Z,7.77
2018-12-19T02:08:56.639Z,7.76
2018-12-19T02:09:37.028Z,7.73
2018-12-19T02:10:17.409Z,7.7
2018-12-19T02:10:57.791Z,7.66
2018-12-19T02:11:38.232Z,7.67
2018-12-19T02:12:18.564Z,7.58
2018-12-19T02:12:58.948Z,7.63
2018-12-19T02:13:39.382Z,7.58
2018-12-19T02:14:19.728Z,7.6
2018-12-19T02:15:00.107Z,7.6
2018-12-19T02:15:40.513Z,7.5
2018-12-19T02:16:20.889Z,7.57
2018-12-19T02:17:01.282Z,7.51
2018-12-19T02:17:41.724Z,7.57
2018-12-19T02:18:22.079Z,7.55
2018-12-19T02:19:02.451Z,7.48
2018-12-19T02:19:42.882Z,7.45
2018-12-19T02:20:23.531Z,7.45
2018-12-19T02:21:03.809Z,7.34
2018-12-19T02:21:44.200Z,7.34
2018-12-19T02:22:24.586Z,7.37
2018-12-19T02:23:05.953Z,7.37
2018-12-19T02:23:46.285Z,7.41
2018-12-19T02:24:27.076Z,7.3
2018-12-19T02:25:08.512Z,7.34
2018-12-19T02:25:48.994Z,7.34
2018-12-19T02:26:29.376Z,7.41
2018-12-19T02:27:11.291Z,7.42
2018-12-19T02:27:51.662Z,7.41
2018-12-19T02:28:32.033Z,7.37
2018-12-19T02:29:14.123Z,7.33
2018-12-19T02:29:54.540Z,7.36
2018-12-19T02:30:40.637Z,7.36
2018-12-19T02:31:21.007Z,7.33
2018-12-19T02:32:01.412Z,7.42
2018-12-19T02:32:41.835Z,7.34
2018-12-19T02:33:24.156Z,7.36
2018-12-19T02:34:04.619Z,7.3
2018-12-19T02:34:44.957Z,7.34
2018-12-19T02:35:25.442Z,7.34
2018-12-19T02:36:06.787Z,7.32
2018-12-19T02:36:47.573Z,7.34
2018-12-19T02:37:27.971Z,7.3
2018-12-19T02:38:08.334Z,7.27
2018-12-19T02:38:48.941Z,7.26
2018-12-19T02:39:35.912Z,7.33
2018-12-19T02:40:09.689Z,7.33
2018-12-19T02:40:52.865Z,7.33
2018-12-19T02:41:34.342Z,7.36
2018-12-19T02:42:14.833Z,7.27
2018-12-19T02:42:55.153Z,7.41
2018-12-19T02:43:36.465Z,7.36
2018-12-19T02:44:16.982Z,7.36
2018-12-19T02:44:58.832Z,7.32
2018-12-19T02:45:41.036Z,7.37
2018-12-19T02:46:23.410Z,7.39
2018-12-19T02:47:03.782Z,7.52
2018-12-19T02:47:44.188Z,7.41
2018-12-19T02:48:24.591Z,7.45
2018-12-19T02:49:04.994Z,7.48
2018-12-19T02:49:49.137Z,7.39
2018-12-19T02:50:29.574Z,7.37
2018-12-19T02:51:12.603Z,7.34
2018-12-19T02:51:53.167Z,7.34
2018-12-19T02:52:33.630Z,7.44
2018-12-19T02:53:13.941Z,7.33
2018-12-19T02:53:54.380Z,7.34
2018-12-19T02:54:36.698Z,7.3
2018-12-19T02:55:17.126Z,7.37
2018-12-19T02:55:57.549Z,7.36
2018-12-19T02:56:37.985Z,7.42
2018-12-19T02:57:18.401Z,7.33
2018-12-19T02:57:58.782Z,7.33
2018-12-19T02:58:40.085Z,7.37
2018-12-19T02:59:21.483Z,7.37
2018-12-19T03:00:06.125Z,7.32
2018-12-19T03:00:46.972Z,7.24
2018-12-19T03:01:31.135Z,7.33
2018-12-19T03:02:13.347Z,7.32
2018-12-19T03:02:53.751Z,7.33
2018-12-19T03:03:34.151Z,7.34
2018-12-19T03:04:14.730Z,7.33
2018-12-19T03:04:55.166Z,7.36
2018-12-19T03:05:37.185Z,7.45
2018-12-19T03:06:19.173Z,7.54
2018-12-19T03:07:01.430Z,7.57
2018-12-19T03:07:43.491Z,7.57
2018-12-19T03:08:23.888Z,7.6
2018-12-19T03:09:04.246Z,7.69
2018-12-19T03:09:44.685Z,7.63
2018-12-19T03:10:25.129Z,7.6
2018-12-19T03:11:05.448Z,7.7
2018-12-19T03:11:45.846Z,7.73
2018-12-19T03:12:26.233Z,7.66
2018-12-19T03:13:09.160Z,7.7
2018-12-19T03:13:49.545Z,7.63
2018-12-19T03:14:29.945Z,7.67
2018-12-19T03:15:10.321Z,7.76
2018-12-19T03:15:52.760Z,7.62
2018-12-19T03:16:33.410Z,7.67
2018-12-19T03:17:13.971Z,7.63
2018-12-19T03:17:54.254Z,7.63
2018-12-19T03:18:34.693Z,7.58
2018-12-19T03:19:15.035Z,7.6
2018-12-19T03:19:55.433Z,7.62
2018-12-19T03:20:36.164Z,7.67
2018-12-19T03:21:16.516Z,7.6
2018-12-19T03:21:56.879Z,7.63
2018-12-19T03:22:37.262Z,7.62
2018-12-19T03:23:17.851Z,7.6
2018-12-19T03:23:58.528Z,7.62
2018-12-19T03:24:38.967Z,7.67
2018-12-19T03:25:21.246Z,7.58
2018-12-19T03:26:02.003Z,7.6
2018-12-19T03:26:43.284Z,7.58
2018-12-19T03:27:25.140Z,7.51
2018-12-19T03:28:04.848Z,7.57
2018-12-19T03:28:45.244Z,7.47
2018-12-19T03:29:25.863Z,7.58
2018-12-19T03:30:06.278Z,7.55
2018-12-19T03:30:46.647Z,7.6
2018-12-19T03:31:28.681Z,7.6
2018-12-19T03:32:10.886Z,7.54
2018-12-19T03:32:52.245Z,7.58
2018-12-19T03:33:32.611Z,7.54
2018-12-19T03:34:13.008Z,7.55
2018-12-19T03:34:56.374Z,7.6
2018-12-19T03:35:36.848Z,7.58
2018-12-19T03:36:17.181Z,7.63
2018-12-19T03:36:57.611Z,7.62
2018-12-19T03:37:38.022Z,7.66
2018-12-19T03:38:18.392Z,7.71
2018-12-19T03:38:59.031Z,7.63
2018-12-19T03:39:42.648Z,7.66
2018-12-19T03:40:22.571Z,7.74
2018-12-19T03:41:05.729Z,7.76
2018-12-19T03:41:46.152Z,7.73
2018-12-19T03:42:28.214Z,7.69
2018-12-19T03:43:09.519Z,7.79
2018-12-19T03:43:49.910Z,7.69
2018-12-19T03:44:30.388Z,7.66
2018-12-19T03:45:10.676Z,7.73
2018-12-19T03:45:51.105Z,7.79
2018-12-19T03:46:31.483Z,7.73
2018-12-19T03:47:12.109Z,7.74
2018-12-19T03:47:52.795Z,7.69
2018-12-19T03:48:33.175Z,7.74
2018-12-19T03:49:13.790Z,7.7
2018-12-19T03:49:54.126Z,7.69
2018-12-19T03:50:34.537Z,7.71
2018-12-19T03:51:14.877Z,7.71
2018-12-19T03:51:55.282Z,7.69
2018-12-19T03:52:35.717Z,7.77
2018-12-19T03:53:16.115Z,7.81
2018-12-19T03:53:56.917Z,7.74
2018-12-19T03:54:36.904Z,7.73
2018-12-19T03:55:17.253Z,7.82
2018-12-19T03:55:59.463Z,7.7
2018-12-19T03:56:40.466Z,7.67
2018-12-19T03:57:21.607Z,7.7
2018-12-19T03:58:02.026Z,7.77
2018-12-19T03:58:42.323Z,7.76
2018-12-19T03:59:24.702Z,7.71
2018-12-19T04:00:06.784Z,7.77
2018-12-19T04:00:47.170Z,7.69
2018-12-19T04:01:27.551Z,7.74
2018-12-19T04:02:10.887Z,7.77
2018-12-19T04:02:51.041Z,7.7
2018-12-19T04:03:35.365Z,7.73
2018-12-19T04:04:15.755Z,7.73
2018-12-19T04:04:56.161Z,7.71
2018-12-19T04:05:36.657Z,7.74
2018-12-19T04:06:16.878Z,7.76
2018-12-19T04:06:57.316Z,7.73
2018-12-19T04:07:37.672Z,7.76
2018-12-19T04:08:18.097Z,7.69
2018-12-19T04:08:58.541Z,7.71
2018-12-19T04:09:42.105Z,7.77
2018-12-19T04:10:22.520Z,7.76
2018-12-19T04:11:02.938Z,7.73
2018-12-19T04:11:43.303Z,7.73
2018-12-19T04:12:25.326Z,7.73
2018-12-19T04:13:06.292Z,7.77
2018-12-19T04:13:47.207Z,7.74
2018-12-19T04:14:27.284Z,7.74
2018-12-19T04:15:07.512Z,7.71
2018-12-19T04:15:48.016Z,7.74
2018-12-19T04:16:28.340Z,7.77
2018-12-19T04:17:08.735Z,7.79
2018-12-19T04:17:51.364Z,7.77
2018-12-19T04:18:33.854Z,7.89
2018-12-19T04:19:14.227Z,7.81
2018-12-19T04:19:54.577Z,7.81
2018-12-19T04:20:36.682Z,7.86
2018-12-19T04:21:17.112Z,7.82
2018-12-19T04:21:57.450Z,7.82
2018-12-19T04:22:37.827Z,7.82
2018-12-19T04:23:20.009Z,7.76
2018-12-19T04:24:01.387Z,7.86
2018-12-19T04:24:41.787Z,7.82
2018-12-19T04:25:22.220Z,7.85
2018-12-19T04:26:02.631Z,7.82
2018-12-19T04:26:42.984Z,7.84
2018-12-19T04:27:29.151Z,7.91
2018-12-19T05:06:32.690Z,8.22
2018-12-19T05:07:24.924Z,8.28
2018-12-19T05:08:17.358Z,8.27
2018-12-19T05:09:12.211Z,8.34
2018-12-19T05:10:09.042Z,8.27
2018-12-19T05:10:57.390Z,8.36
2018-12-19T05:11:49.501Z,8.4
2018-12-19T05:12:41.677Z,8.42
2018-12-19T05:13:33.827Z,8.46
2018-12-19T05:14:25.834Z,8.54
2018-12-19T05:15:18.595Z,8.46
2018-12-19T05:16:10.278Z,8.6
2018-12-19T05:17:04.187Z,8.6
2018-12-19T05:17:58.987Z,8.61
2018-12-19T05:18:51.655Z,8.54
2018-12-19T05:19:43.904Z,8.6
2018-12-19T05:20:36.639Z,8.52
2018-12-19T05:21:28.346Z,8.65
2018-12-19T05:22:20.908Z,8.7
2018-12-19T05:23:12.791Z,8.7
2018-12-19T05:24:05.291Z,8.65
2018-12-19T05:24:57.239Z,8.78
2018-12-19T05:25:49.812Z,8.7
2018-12-19T05:26:42.268Z,8.73
2018-12-19T05:27:34.410Z,8.75
2018-12-19T05:29:16.441Z,8.79
2018-12-19T05:30:08.739Z,8.94
2018-12-19T05:31:01.113Z,8.98
2018-12-19T05:31:53.602Z,8.94
2018-12-19T05:32:46.245Z,8.97
2018-12-19T05:33:38.558Z,8.94
2018-12-19T05:34:30.876Z,8.98
2018-12-19T05:35:23.626Z,9.06
2018-12-19T05:36:16.488Z,9.03
2018-12-19T05:37:09.105Z,9.13
2018-12-19T05:38:02.533Z,9.13
2018-12-19T05:38:55.002Z,9.08
2018-12-19T05:39:47.466Z,9.15
2018-12-19T05:40:40.543Z,9.19
2018-12-19T05:41:32.600Z,9.16
2018-12-19T05:42:25.849Z,9.15
2018-12-19T05:43:17.932Z,9.19
2018-12-19T05:44:11.409Z,9.2
2018-12-19T05:45:05.672Z,9.3
2018-12-19T05:45:57.549Z,9.38
2018-12-19T05:46:52.342Z,9.32
2018-12-19T05:47:45.871Z,9.31
2018-12-19T05:48:38.399Z,9.34
2018-12-19T05:49:32.243Z,9.31
2018-12-19T05:50:24.287Z,9.34
2018-12-19T05:51:17.037Z,9.38
2018-12-19T05:52:09.191Z,9.37
2018-12-19T05:53:01.192Z,9.4
2018-12-19T05:53:53.521Z,9.38
2018-12-19T05:54:45.504Z,9.42
2018-12-19T05:55:40.175Z,9.48
2018-12-19T05:56:32.626Z,9.37
2018-12-19T05:57:25.381Z,9.42
2018-12-19T05:58:17.835Z,9.45
2018-12-19T05:59:11.087Z,9.44
2018-12-19T06:00:03.489Z,9.49
2018-12-19T06:00:57.880Z,9.44
2018-12-19T06:01:50.587Z,9.38
2018-12-19T06:02:42.705Z,9.4
2018-12-19T06:03:34.648Z,9.42
2018-12-19T06:07:41.373Z,9.27
2018-12-19T06:08:34.922Z,9.34
2018-12-19T06:09:36.385Z,9.35
2018-12-19T06:10:29.134Z,9.37
2018-12-19T06:11:21.579Z,9.37
2018-12-19T06:12:14.573Z,9.3
2018-12-19T06:13:07.035Z,9.31
2018-12-19T06:13:59.693Z,9.3
2018-12-19T06:14:51.902Z,9.31
2018-12-19T06:15:46.349Z,9.26
2018-12-19T06:16:40.387Z,9.31
2018-12-19T06:17:41.032Z,9.37
2018-12-19T06:18:35.971Z,9.37
2018-12-19T06:19:34.002Z,9.32
2018-12-19T06:20:27.893Z,9.42
2018-12-19T06:21:20.469Z,9.49
2018-12-19T06:22:12.973Z,9.42
2018-12-19T06:23:06.062Z,9.45
2018-12-19T06:23:59.007Z,9.42
2018-12-19T06:25:53.475Z,9.45
2018-12-19T06:26:46.022Z,9.4
2018-12-19T06:27:38.354Z,9.35
2018-12-19T06:28:33.454Z,9.3
2018-12-19T06:29:26.936Z,9.34
2018-12-19T06:30:18.964Z,9.31
2018-12-19T06:31:12.829Z,9.27
2018-12-19T06:32:07.094Z,9.34
2018-12-19T06:32:59.998Z,9.26
2018-12-19T06:33:52.499Z,9.34
2018-12-19T06:34:45.318Z,9.37
2018-12-19T06:35:37.935Z,9.32
2018-12-19T06:36:30.700Z,9.32
2018-12-19T06:37:24.896Z,9.3
2018-12-19T06:38:20.506Z,9.34
2018-12-19T06:39:16.278Z,9.22
2018-12-19T06:40:08.766Z,9.3
2018-12-19T06:41:00.951Z,9.32
2018-12-19T06:41:57.990Z,9.32
2018-12-19T06:42:54.828Z,9.34
2018-12-19T06:44:05.913Z,9.34
2018-12-19T06:45:03.023Z,9.26
2018-12-19T06:45:55.264Z,9.31
2018-12-19T06:46:49.623Z,9.38
2018-12-19T06:49:02.905Z,9.48
2018-12-19T06:49:57.699Z,9.37
2018-12-19T06:50:50.227Z,9.41
2018-12-19T06:51:42.485Z,9.53
2018-12-19T06:52:35.565Z,9.53
2018-12-19T06:53:27.529Z,9.62
2018-12-19T06:54:20.506Z,9.65
2018-12-19T06:55:13.856Z,9.6
2018-12-19T06:56:07.445Z,9.63
2018-12-19T06:57:01.597Z,9.63
2018-12-19T06:57:54.566Z,9.62
2018-12-19T06:59:15.053Z,9.68
2018-12-19T07:00:07.622Z,9.65
2018-12-19T07:02:26.168Z,9.74
2018-12-19T07:03:19.063Z,9.67
2018-12-19T07:04:11.778Z,9.71
2018-12-19T07:05:03.927Z,9.68
2018-12-19T07:06:04.432Z,9.68
2018-12-19T07:07:01.083Z,9.83
2018-12-19T07:07:56.437Z,9.77
2018-12-19T07:08:50.040Z,9.78
2018-12-19T07:09:44.637Z,9.77
2018-12-19T07:10:39.401Z,9.85
2018-12-19T07:11:38.193Z,9.86
2018-12-19T07:12:35.668Z,9.93
2018-12-19T07:13:56.046Z,10.02
2018-12-19T07:14:56.187Z,9.96
2018-12-19T07:15:52.548Z,9.99
2018-12-19T07:16:50.112Z,9.99
2018-12-19T07:17:47.651Z,9.99
2018-12-19T07:18:40.946Z,10.07
2018-12-19T07:19:37.917Z,9.99
2018-12-19T07:20:33.581Z,10.02
2018-12-19T07:21:26.322Z,9.98
2018-12-19T07:22:26.470Z,9.98
2018-12-19T07:23:23.134Z,9.96
2018-12-19T07:24:25.989Z,9.96
2018-12-19T07:25:27.414Z,9.99
2018-12-19T07:26:27.879Z,9.98
2018-12-19T07:27:23.281Z,9.96
2018-12-19T07:28:24.147Z,9.99
2018-12-19T07:32:34.537Z,9.99
2018-12-19T07:33:27.925Z,9.98
2018-12-19T07:34:22.648Z,9.93
2018-12-19T07:35:17.869Z,9.86
2018-12-19T07:36:17.766Z,9.74
2018-12-19T07:37:18.473Z,9.71
2018-12-19T07:38:21.801Z,9.63
2018-12-19T07:39:23.059Z,9.58
2018-12-19T07:40:22.003Z,9.42
2018-12-19T07:41:19.710Z,9.34
2018-12-19T07:42:20.555Z,9.35
2018-12-19T07:43:26.585Z,9.31
2018-12-19T07:45:20.641Z,9.3
2018-12-19T07:46:01.204Z,9.23
2018-12-19T07:46:44.277Z,9.19
2018-12-19T07:47:24.755Z,9.13
2018-12-19T07:48:06.008Z,9.2
2018-12-19T07:49:06.301Z,9.16
2018-12-19T07:49:46.744Z,9.24
2018-12-19T07:50:39.928Z,9.26
2018-12-19T07:51:20.422Z,9.22
2018-12-19T07:52:00.850Z,9.23
2018-12-19T07:52:43.246Z,9.19
2018-12-19T07:53:23.631Z,9.19
2018-12-19T07:54:08.027Z,9.17
2018-12-19T07:54:51.269Z,9.23
2018-12-19T07:55:32.573Z,9.23
2018-12-19T07:56:13.921Z,9.24
2018-12-19T07:57:12.033Z,9.16
2018-12-19T07:57:53.441Z,9.16
2018-12-19T07:58:35.323Z,9.19
2018-12-19T07:59:17.760Z,9.06
2018-12-19T07:59:59.045Z,9.08
2018-12-19T08:00:43.163Z,9.04
2018-12-19T08:01:23.547Z,9.03
2018-12-19T08:02:03.944Z,9.1
2018-12-19T08:03:11.406Z,8.97
2018-12-19T08:04:19.843Z,8.96
2018-12-19T08:05:00.388Z,8.91
2018-12-19T08:05:46.132Z,8.88
2018-12-19T08:06:28.177Z,8.85
2018-12-19T08:07:08.620Z,8.89
2018-12-19T08:07:48.993Z,8.88
2018-12-19T08:08:29.471Z,8.93
2018-12-19T08:09:12.386Z,8.83
2018-12-19T08:09:52.900Z,8.85
2018-12-19T08:13:40.532Z,8.83
2018-12-19T08:14:36.433Z,8.83
2018-12-19T08:15:38.547Z,8.82
2018-12-19T08:16:32.366Z,8.86
2018-12-19T08:17:24.737Z,8.91
2018-12-19T08:18:20.197Z,8.89
2018-12-19T08:19:16.061Z,8.94
2018-12-19T08:20:09.403Z,8.93
2018-12-19T08:21:02.888Z,8.89
2018-12-19T08:21:55.814Z,8.98
2018-12-19T08:22:48.111Z,8.96
2018-12-19T08:23:42.488Z,8.91
2018-12-19T08:24:37.055Z,9.01
2018-12-19T08:28:13.399Z,8.96
2018-12-19T08:29:07.422Z,8.97
2018-12-19T08:30:01.893Z,8.91
2018-12-19T08:30:55.246Z,8.88
2018-12-19T08:31:54.820Z,8.94
2018-12-19T08:32:50.340Z,8.93
2018-12-19T08:33:44.332Z,8.89
2018-12-19T08:34:38.517Z,8.88
2018-12-19T08:35:33.183Z,8.89
2018-12-19T08:36:31.632Z,8.98
2018-12-19T08:37:27.614Z,8.96
2018-12-19T08:38:25.747Z,9.06
2018-12-19T08:39:19.349Z,9
2018-12-19T08:40:12.977Z,8.93
2018-12-19T08:41:07.092Z,9.03
2018-12-19T08:42:02.670Z,9.13
2018-12-19T08:43:01.393Z,9.08
2018-12-19T08:43:56.478Z,9.08
2018-12-19T08:44:51.141Z,9.16
2018-12-19T08:45:46.313Z,9.27
2018-12-19T08:46:40.220Z,9.2
2018-12-19T08:47:38.654Z,9.44
2018-12-19T08:48:34.913Z,9.58
2018-12-19T08:49:35.631Z,9.7
2018-12-19T08:50:36.186Z,9.78
2018-12-19T08:51:31.105Z,9.75
2018-12-19T08:52:34.752Z,9.8
2018-12-19T08:53:39.393Z,9.85
2018-12-19T08:54:42.241Z,9.93
2018-12-19T08:55:48.443Z,9.98
2018-12-19T08:56:48.220Z,9.92
2018-12-19T08:57:44.198Z,10.06
2018-12-19T08:58:38.045Z,10.04
2018-12-19T08:59:34.179Z,10.07
2018-12-19T09:00:28.904Z,10.11
2018-12-19T09:01:26.327Z,10.1
2018-12-19T09:03:53.942Z,10.35
2018-12-19T09:05:00.499Z,10.35
2018-12-19T09:05:55.000Z,10.35
2018-12-19T09:07:57.583Z,10.55
2018-12-19T09:08:57.024Z,10.55
2018-12-19T09:09:52.987Z,10.65
2018-12-19T09:10:51.917Z,10.72
2018-12-19T09:14:10.986Z,11.35
2018-12-19T09:21:18.820Z,12.62
2018-12-19T09:22:03.396Z,12.61
2018-12-19T09:25:40.846Z,13.24
2018-12-19T09:26:21.129Z,13.32
2018-12-19T09:27:01.567Z,13.46
2018-12-19T09:27:42.001Z,13.59
2018-12-19T09:28:22.596Z,13.73
2018-12-19T09:29:02.818Z,13.72
2018-12-19T09:29:44.224Z,13.72
2018-12-19T09:30:25.638Z,13.71
2018-12-19T09:31:05.998Z,13.63
2018-12-19T09:31:46.419Z,13.8
2018-12-19T09:32:27.435Z,13.86
2018-12-19T09:33:09.632Z,13.84
2018-12-19T09:33:51.874Z,13.84
2018-12-19T09:34:32.448Z,13.93
2018-12-19T09:35:15.034Z,13.91
2018-12-19T09:35:55.508Z,13.99
2018-12-19T09:36:35.832Z,14.05
2018-12-19T09:37:16.365Z,14.16
2018-12-19T09:37:56.634Z,14.24
2018-12-19T09:38:37.049Z,14.29
2018-12-19T09:39:17.465Z,14.41
2018-12-19T09:41:19.665Z,14.6
2018-12-19T09:43:15.669Z,14.63
2018-12-19T09:44:37.374Z,14.63
2018-12-19T09:51:11.675Z,15.43
2018-12-19T09:52:06.535Z,15.51
2018-12-19T09:52:59.150Z,15.59
2018-12-19T09:53:55.132Z,15.58
2018-12-19T09:54:53.066Z,15.62
2018-12-19T09:55:50.405Z,15.64
2018-12-19T09:56:43.981Z,15.66
2018-12-19T09:57:39.863Z,15.76
2018-12-19T09:58:37.779Z,15.85
2018-12-19T09:59:37.367Z,15.8
2018-12-19T10:00:38.807Z,16.04
2018-12-19T10:02:39.799Z,16.07
2018-12-19T10:03:20.082Z,16.13
2018-12-19T10:04:00.534Z,16.04
2018-12-19T10:04:40.871Z,16.04
2018-12-19T10:05:21.397Z,16.03
2018-12-19T10:06:01.740Z,15.88
2018-12-19T10:06:42.099Z,15.8
2018-12-19T10:07:22.619Z,15.59
2018-12-19T10:09:38.307Z,15.51
2018-12-19T10:10:18.690Z,15.46
2018-12-19T10:10:59.102Z,15.53
2018-12-19T10:11:39.537Z,15.52
2018-12-19T10:12:20.022Z,15.56
2018-12-19T10:13:00.361Z,15.81
2018-12-19T10:13:40.743Z,15.81
2018-12-19T10:14:26.597Z,15.84
2018-12-19T10:15:07.055Z,15.81
2018-12-19T10:15:47.527Z,15.76
2018-12-19T10:16:31.773Z,15.8
2018-12-19T10:20:22.149Z,15.37
2018-12-19T10:21:03.626Z,15.38
2018-12-19T10:21:44.085Z,15.38
2018-12-19T10:22:24.554Z,15.53
2018-12-19T10:23:04.948Z,15.62
2018-12-19T10:23:45.326Z,15.77
2018-12-19T10:24:25.796Z,15.88
2018-12-19T10:25:07.680Z,15.84
2018-12-19T10:27:14.719Z,15.74
2018-12-19T10:28:24.631Z,15.73
2018-12-19T11:07:12.102Z,15.2
2018-12-19T11:08:25.424Z,15.3
2018-12-19T11:09:29.100Z,15.43
2018-12-19T11:12:07.432Z,15.44
2018-12-19T11:12:47.659Z,15.62
2018-12-19T11:13:28.169Z,15.68
2018-12-19T11:14:08.710Z,15.56
2018-12-19T11:14:55.894Z,15.59
2018-12-19T11:15:36.397Z,15.64
2018-12-19T11:16:17.343Z,15.7
2018-12-19T11:16:57.728Z,15.74
2018-12-19T11:17:40.946Z,15.66
2018-12-19T11:18:18.992Z,15.6
2018-12-19T11:19:16.476Z,15.66
2018-12-19T11:19:56.444Z,15.73
2018-12-19T11:20:36.988Z,15.81
2018-12-19T11:21:17.382Z,15.81
2018-12-19T11:21:58.067Z,15.68
2018-12-19T11:22:39.666Z,15.67
2018-12-19T11:23:20.248Z,15.59
2018-12-19T11:24:00.834Z,15.6
2018-12-19T11:24:47.434Z,15.6
2018-12-19T11:25:30.777Z,15.68
2018-12-19T11:26:11.251Z,15.62
2018-12-19T11:29:46.461Z,15.67
2018-12-19T11:30:42.162Z,15.8
2018-12-19T11:31:36.490Z,15.86
2018-12-19T11:32:34.193Z,15.81
2018-12-19T11:33:32.520Z,15.84
2018-12-19T11:34:29.960Z,15.78
2018-12-19T11:35:30.655Z,15.85
2018-12-19T11:36:31.903Z,15.92
2018-12-19T11:40:45.836Z,15.41
2018-12-19T11:41:48.154Z,15.41
2018-12-19T11:42:40.814Z,15.34
2018-12-19T11:43:35.249Z,15.3
2018-12-19T11:44:34.129Z,15.38
2018-12-19T11:47:08.378Z,15.07
2018-12-19T11:48:02.497Z,14.91
2018-12-19T11:48:56.917Z,14.72
2018-12-19T11:49:54.168Z,14.67
2018-12-19T11:50:51.581Z,14.6
2018-12-19T11:51:50.943Z,14.74
2018-12-19T11:52:48.579Z,14.61
2018-12-19T11:53:47.623Z,14.64
2018-12-19T11:54:41.344Z,14.61
2018-12-19T11:55:35.238Z,14.49
2018-12-19T11:56:32.455Z,14.36
2018-12-19T11:57:29.500Z,14.3
2018-12-19T11:58:27.194Z,14.34
2018-12-19T11:59:19.679Z,14.38
2018-12-19T12:00:12.592Z,14.34
2018-12-19T12:01:04.851Z,14.38
2018-12-19T12:01:59.908Z,14.54
2018-12-19T12:02:56.051Z,14.6
2018-12-19T12:03:54.047Z,15.04
2018-12-19T12:04:51.193Z,15.18
2018-12-19T12:05:50.314Z,15.67
2018-12-19T12:06:49.146Z,15.96
2018-12-19T12:07:48.544Z,16.18
2018-12-19T12:08:42.405Z,16.4
2018-12-19T12:09:44.393Z,16.29
2018-12-19T12:10:38.497Z,16.25
2018-12-19T12:11:32.817Z,16.23
2018-12-19T12:12:41.178Z,16.25
2018-12-19T12:13:42.539Z,16.3
2018-12-19T12:14:39.867Z,16.07
2018-12-19T12:15:39.797Z,16.26
2018-12-19T12:16:36.294Z,16.27
2018-12-19T12:19:31.127Z,16.5
2018-12-19T12:23:11.240Z,16.47
2018-12-19T12:24:07.178Z,16.47
2018-12-19T12:25:08.098Z,16.37
2018-12-19T12:26:02.946Z,16.29
2018-12-19T12:27:01.594Z,15.99
2018-12-19T12:27:55.005Z,15.81
2018-12-19T12:29:03.454Z,15.73
2018-12-19T12:30:04.599Z,15.56
2018-12-19T12:31:03.172Z,15.55
2018-12-19T12:31:56.694Z,15.37
2018-12-19T12:32:52.575Z,15.41
2018-12-19T12:33:57.057Z,15.33
2018-12-19T12:34:53.469Z,15.23
2018-12-19T12:35:54.517Z,15.15
2018-12-19T12:42:48.383Z,15.2
2018-12-19T12:43:47.207Z,15.19
2018-12-19T12:44:44.359Z,15.33
2018-12-19T12:45:42.854Z,15.31
2018-12-19T12:46:39.691Z,15.18
2018-12-19T12:47:37.444Z,15.11
2018-12-19T12:48:31.755Z,14.97
2018-12-19T12:49:30.257Z,14.82
2018-12-19T12:50:26.918Z,14.63
2018-12-19T12:51:21.635Z,14.41
2018-12-19T12:52:18.116Z,14.41
2018-12-19T12:53:20.369Z,14.41
2018-12-19T12:56:01.950Z,14.12
2018-12-19T12:56:42.221Z,14.16
2018-12-19T12:57:22.624Z,13.96
2018-12-19T12:58:03.178Z,13.9
2018-12-19T12:58:43.637Z,13.83
2018-12-19T12:59:24.066Z,13.79
2018-12-19T13:00:04.486Z,13.81
2018-12-19T13:00:44.859Z,13.75
2018-12-19T13:01:25.350Z,13.72
2018-12-19T13:02:05.773Z,13.66
2018-12-19T13:02:46.416Z,13.69
2018-12-19T13:03:26.829Z,13.66
2018-12-19T13:04:07.168Z,13.57
2018-12-19T13:04:47.583Z,13.57
2018-12-19T13:08:36.720Z,13.27
2018-12-19T13:09:28.681Z,13.27
2018-12-19T13:10:21.539Z,13.29
2018-12-19T13:11:19.289Z,13.41
2018-12-19T13:12:14.863Z,13.38
2018-12-19T13:13:12.758Z,13.51
2018-12-19T13:15:10.749Z,13.25
2018-12-19T13:16:04.424Z,13.27
2018-12-19T13:17:00.033Z,13.36
2018-12-19T13:17:54.747Z,13.48
2018-12-19T13:18:51.448Z,13.47
2018-12-19T13:19:54.387Z,13.66
2018-12-19T13:20:50.050Z,13.68
2018-12-19T13:21:50.761Z,13.73
2018-12-19T13:24:29.305Z,13.72
2018-12-19T13:25:10.578Z,13.8
2018-12-19T13:25:50.998Z,13.75
2018-12-19T13:26:31.746Z,13.73
2018-12-19T13:27:12.173Z,13.75
2018-12-19T13:27:52.569Z,13.83
2018-12-19T13:28:32.990Z,13.9
2018-12-19T13:29:13.951Z,13.8
2018-12-19T13:29:54.317Z,13.79
2018-12-19T13:30:34.722Z,13.75
2018-12-19T13:31:15.163Z,13.71
2018-12-19T13:31:55.643Z,13.66
2018-12-19T13:32:36.041Z,13.68
2018-12-19T13:33:16.337Z,13.72
2018-12-19T13:33:56.764Z,13.68
2018-12-19T13:34:37.120Z,13.69
2018-12-19T13:35:17.980Z,13.66